Verona / Villafranca Airport

Jump to: basic info | weather | frequencies | runways | comments

Related pages: nearby airports | nearby navaids | notams | map

Basic information (top)

Codes: VRN LIPX
Location: lon 45.395699, lat 10.888500, elev 239 ft / 73 m msl
Status: large_airport
Scheduled airline service: yes
Links: Wikipedia Mobile

Weather (top)

Current conditions (rec'd 2014/04/18 23:15Z):

LIPX 182315Z 04007KT 9999 -RA SCT040 BKN060 12/10 Q1005

Airport forecast (rec'd 2014/04/18 15:24Z):

TAF TAF LIPX 181400Z 1815/1924 10010KT 9999 FEW030CB BKN050 
      BECMG 1820/1822 36012KT 5000 RA BKN015 
      TEMPO 1820/1824 3000 TSRA SCT010CB

Frequencies (top)

Verify before use: may be inaccurate or out of date.

APP: 36.23 MHz (GARDA APP)
APP: 124.45 MHz (GARDA APP)
GND: 121.75 MHz (GND)
INFO: 123.25 MHz (PADOVA INFO)
TWR: 118.65 MHz (TWR)

Runways (top)

04/22: 10,064 x 148 ft (3,068 x 45 m) — paved — lighted — threshold 04 displaced 189 ft (58 m) — threshold 22 displaced 1,345 ft (410 m)

Latest comments (top)

Verona: Verona [read]

More... (top)

See also NOTAMs and nearby airports and navaids, or visit the Verona / Villafranca Airport page at the main OurAirports website..